Fulda, Germany

12:39 AM CEST on September 05, 2015 (GMT +0200)
Fulda Zieherser Weg | | Change Station
CLOSE
Current Station
Personal Weather Station
Location: Fulda, HESSEN
Elevation: 935 ft
Nearby Weather Stations

Elev 935 ft 50.56 °N, 9.69 °E | Updated 13 seconds ago

Mostly Cloudy
Mostly Cloudy
49.8 °F
Feels Like 50 °F
N
0.0
Wind Variable Wind from WNW
Gusts 0.0 mph

Today
High -- | Low -- °F
--% Chance of Precip.
Yesterday
High -- | Low -- °F
Precip. -- in
6:40 AM 7:58 PM
Waning Gibbous, 55% visible
Pressure 29.92 in
Visibility 6.2 miles
Clouds Few 7000 ft
Mostly Cloudy 10000 ft
Windchill 50 °F
Dew Point 45 °F
Humidity 83%
Rainfall 0.00 in
Snow Depth Not available.
UV 0.0 out of 12
Pollen Not available.
Air Quality Not available.
Flu Activity Not available.
METAR ETHF 042220Z 22009KT 9999 FEW070 BKN100 12/07 Q1013 BLU
Pressure 29.92 in
Visibility 6.2 miles
Clouds Few 7000 ft
Mostly Cloudy 10000 ft
Windchill 50 °F
Dew Point 45 °F
Humidity 83%
Rainfall 0.00 in
Snow Depth Not available.
UV 0.0 out of 12
Pollen Not available.
Air Quality Not available.
Flu Activity Not available.
METAR ETHF 042220Z 22009KT 9999 FEW070 BKN100 12/07 Q1013 BLU

10-Day Weather Forecast

×

Almanac

Astronomy

Sep. 05, 2015 Rise Set
Actual Time
Civil Twilight
Nautical Twilight
Astronomical Twilight
Moon
Length of Visible Light
Length of Day
Tomorrow will be .
, % of the Moon is Illuminated

Today's Extremes

Country Highs Country Lows

Community

WunderPhotos

Upload Photos

1,852,319 photos uploaded!

WunderBlogs® & News

Nearby

Air Quality

  Air Quality AQ Index Pollutant
Not available.

Snow Depth

Station Depth Elevation

Earthquake Activity

City Distance Mag. Time & Date
Minimum magnitude displayed is 2.5.

Coastal Water Temperatures

Place Temperature

Stations

Nearby Weather Stations

Station Location Temp. Windchill Dew Point Humidity Wind Precip. Elev Updated Type